Time;durP1;ratioP1;P1;durP2;ratioP2;P2;SDS_P1;SDS_P2;PMS_P1;PMS_P2;Temp;Humidity;BMP_temperature;BMP_pressure;BME280_temperature;BME280_humidity;BME280_pressure;Samples;Min_cycle;Max_cycle;Signal;HPM_P1;HPM_P2
2021/06/20 00:00:10;;;;;;;;;;;;;;;22.06;71.04;99483.47;5063715;28;19961;-70
2021/06/20 00:02:36;;;;;;;;;;;;;;;22.04;70.93;99491.78;5046224;28;20157;-70
2021/06/20 00:05:02;;;;;;;;;;;;;;;22.05;70.80;99488.03;5046200;28;19957;-70
2021/06/20 00:07:27;;;;;;;;;;;;;;;22.16;70.40;99489.84;5063643;28;19976;-70
2021/06/20 00:09:53;;;;;;;;;;;;;;;21.99;71.01;99486.28;5046095;28;20004;-70
2021/06/20 00:12:18;;;;;;;;;;;;;;;21.83;71.30;99485.16;5064089;28;19969;-70
2021/06/20 00:14:44;;;;;;;;;;;;;;;21.91;70.81;99486.66;5062966;28;20181;-70
2021/06/20 00:17:09;;;;;;;;;;;;;;;21.98;70.46;99477.38;5063967;28;20007;-70
2021/06/20 00:19:34;;;;;;;;;;;;;;;21.98;70.00;99479.25;5063459;28;19973;-70
2021/06/20 00:21:59;;;;;;;;;;;;;;;21.76;70.75;99475.56;5063452;28;19957;-70
2021/06/20 00:24:25;;;;;;;;;;;;;;;21.73;70.83;99481.44;5063609;28;19973;-70
2021/06/20 00:26:50;;;;;;;;;;;;;;;21.84;70.00;99483.28;5045754;28;19965;-70
2021/06/20 00:29:15;;;;;;;;;;;;;;;21.84;70.08;99486.78;5062600;28;20282;-70
2021/06/20 00:31:41;;;;;;;;;;;;;;;21.71;70.38;99489.78;5045646;28;19961;-70
2021/06/20 00:34:06;;;;;;;;;;;;;;;21.60;70.46;99488.75;5063886;28;19992;-70
2021/06/20 00:36:31;;;;;;;;;;;;;;;21.64;70.59;99484.53;5063146;28;19996;-70
2021/06/20 00:38:56;;;;;;;;;;;;;;;21.79;69.85;99483.19;5063126;28;20048;-70
2021/06/20 00:41:22;;;;;;;;;;;;;;;21.70;70.31;99490.81;5063452;28;19961;-70
2021/06/20 00:43:47;;;;;;;;;;;;;;;21.77;69.79;99488.81;5063137;28;20000;-70
2021/06/20 00:46:13;;;;;;;;;;;;;;;21.68;70.10;99485.69;5063375;28;20239;-70
2021/06/20 00:48:38;;;;;;;;;;;;;;;21.70;69.64;99492.72;5063314;28;19989;-70
2021/06/20 00:51:03;;;;;;;;;;;;;;;21.75;69.65;99487.41;5045199;28;20010;-70
2021/06/20 00:53:29;;;;;;;;;;;;;;;21.62;69.91;99483.94;5063462;28;20025;-70
2021/06/20 00:55:57;;;;;;;;;;;;;;;21.80;69.45;99493.72;5063071;28;19992;-69
2021/06/20 00:58:22;;;;;;;;;;;;;;;21.61;70.52;99485.00;5063164;28;19985;-70
2021/06/20 01:00:48;;;;;;;;;;;;;;;21.48;70.79;99487.16;5062788;28;20277;-70
2021/06/20 01:03:13;;;;;;;;;;;;;;;21.48;70.72;99485.28;5063188;28;19981;-70
2021/06/20 01:05:38;;;;;;;;;;;;;;;21.32;71.39;99484.16;5062656;28;20162;-70
2021/06/20 01:08:04;;;;;;;;;;;;;;;21.53;70.48;99485.38;5062494;28;19993;-70
2021/06/20 01:10:35;;;;;;;;;;;;;;;21.30;71.34;99488.97;5044935;28;19961;-70
2021/06/20 01:13:00;;;;;;;;;;;;;;;21.17;71.60;99486.50;5062518;28;19999;-70
2021/06/20 01:15:26;;;;;;;;;;;;;;;21.24;71.41;99487.22;5062708;28;19947;-70
2021/06/20 01:17:51;;;;;;;;;;;;;;;21.27;71.50;99489.44;5062835;28;20027;-70
2021/06/20 01:20:18;;;;;;;;;;;;;;;21.30;70.97;99488.16;5062764;28;20028;-70
2021/06/20 01:22:44;;;;;;;;;;;;;;;21.37;70.64;99494.22;5044759;28;20026;-70
2021/06/20 01:25:15;;;;;;;;;;;;;;;21.29;71.34;99484.63;5062586;28;19953;-70
2021/06/20 01:27:40;;;;;;;;;;;;;;;21.30;71.38;99478.19;5062662;28;19969;-70
2021/06/20 01:30:08;;;;;;;;;;;;;;;21.31;71.23;99493.31;5062452;28;20067;-70
2021/06/20 01:32:33;;;;;;;;;;;;;;;21.26;71.62;99489.69;5062743;28;19969;-70
2021/06/20 01:34:59;;;;;;;;;;;;;;;21.28;71.24;99491.09;5062436;28;19968;-70
2021/06/20 01:37:24;;;;;;;;;;;;;;;21.30;71.05;99482.75;5044750;28;20296;-70
2021/06/20 01:39:49;;;;;;;;;;;;;;;21.31;70.86;99485.22;5044791;28;19983;-70
2021/06/20 01:42:16;;;;;;;;;;;;;;;21.30;70.47;99493.53;5048765;28;20000;-70
2021/06/20 01:44:59;;;;;;;;;;;;;;;21.25;70.75;99499.63;5066428;28;20181;-70
2021/06/20 01:47:25;;;;;;;;;;;;;;;21.24;70.47;99498.00;5066597;28;19965;-70
2021/06/20 01:49:51;;;;;;;;;;;;;;;21.22;70.74;99510.03;5066451;28;20039;-71
2021/06/20 01:52:17;;;;;;;;;;;;;;;21.35;70.08;99507.09;5066457;28;19976;-70
2021/06/20 01:54:52;;;;;;;;;;;;;;;21.24;70.47;99507.94;5048654;28;19983;-70
2021/06/20 01:57:36;;;;;;;;;;;;;;;21.17;70.46;99509.91;5049354;28;20144;-70
2021/06/20 02:00:04;;;;;;;;;;;;;;;21.19;70.07;99505.94;5054334;28;19984;-70
2021/06/20 02:02:29;;;;;;;;;;;;;;;21.11;70.53;99511.69;5057378;28;20012;-70
2021/06/20 02:04:55;;;;;;;;;;;;;;;21.16;70.17;99508.28;5060446;28;20263;-72
2021/06/20 02:07:25;;;;;;;;;;;;;;;21.08;70.67;99512.16;5057992;28;20166;-72
2021/06/20 02:09:50;;;;;;;;;;;;;;;21.01;70.86;99512.28;5055945;28;19978;-72
2021/06/20 02:12:16;;;;;;;;;;;;;;;21.14;70.41;99497.75;5058423;28;19972;-72
2021/06/20 02:14:41;;;;;;;;;;;;;;;21.10;70.46;99512.75;5051895;28;19989;-72
2021/06/20 02:17:13;;;;;;;;;;;;;;;21.21;70.02;99517.28;5056921;28;20086;-72
2021/06/20 02:19:38;;;;;;;;;;;;;;;21.16;69.87;99521.75;5050032;28;20067;-72
2021/06/20 02:22:03;;;;;;;;;;;;;;;21.15;69.70;99522.81;5047065;28;20302;-72
2021/06/20 02:24:29;;;;;;;;;;;;;;;21.04;70.04;99517.19;5060252;28;20016;-72
2021/06/20 02:26:54;;;;;;;;;;;;;;;21.08;69.63;99520.22;5065820;28;19980;-72
2021/06/20 02:29:19;;;;;;;;;;;;;;;21.03;69.80;99515.56;5065542;28;19985;-72
2021/06/20 02:31:44;;;;;;;;;;;;;;;20.92;70.12;99526.34;5048100;28;19965;-72
2021/06/20 02:34:10;;;;;;;;;;;;;;;20.91;70.26;99527.38;5065510;28;20027;-72
2021/06/20 02:36:35;;;;;;;;;;;;;;;20.64;70.84;99532.38;5065587;28;19957;-72
2021/06/20 02:39:00;;;;;;;;;;;;;;;20.68;70.79;99530.84;5047997;28;20039;-72
2021/06/20 02:41:26;;;;;;;;;;;;;;;20.51;71.63;99536.09;5063452;28;19961;-72
2021/06/20 02:43:51;;;;;;;;;;;;;;;20.56;71.29;99528.16;5046616;28;20290;-72
2021/06/20 02:46:16;;;;;;;;;;;;;;;20.61;71.39;99533.66;5054114;28;19965;-72
2021/06/20 02:48:41;;;;;;;;;;;;;;;20.63;71.07;99539.63;5049771;28;19985;-72
2021/06/20 02:51:07;;;;;;;;;;;;;;;20.65;70.91;99534.84;5046484;28;20259;-72
2021/06/20 02:53:32;;;;;;;;;;;;;;;20.81;70.12;99532.53;5037989;28;19987;-72
2021/06/20 02:55:57;;;;;;;;;;;;;;;20.75;70.41;99538.81;5052977;28;20006;-72
2021/06/20 02:58:23;;;;;;;;;;;;;;;20.70;70.26;99534.94;5036810;28;20577;-72
2021/06/20 03:00:48;;;;;;;;;;;;;;;20.67;70.75;99539.97;5049221;28;19966;-72
2021/06/20 03:03:13;;;;;;;;;;;;;;;20.71;70.33;99533.09;5051749;28;20031;-72
2021/06/20 03:05:38;;;;;;;;;;;;;;;20.71;70.19;99528.53;5063059;28;19965;-72
2021/06/20 03:08:04;;;;;;;;;;;;;;;20.52;70.75;99526.97;5046027;28;19996;-72
2021/06/20 03:10:29;;;;;;;;;;;;;;;20.57;70.67;99521.72;5036255;28;19965;-72
2021/06/20 03:12:54;;;;;;;;;;;;;;;20.56;70.66;99527.34;5053618;28;19981;-72
2021/06/20 03:15:20;;;;;;;;;;;;;;;20.73;69.88;99533.66;5045724;28;20004;-72
2021/06/20 03:17:45;;;;;;;;;;;;;;;20.49;70.68;99540.06;5051408;28;20196;-72
2021/06/20 03:20:10;;;;;;;;;;;;;;;20.55;70.66;99542.66;5059219;28;19965;-72
2021/06/20 03:22:36;;;;;;;;;;;;;;;20.57;70.59;99551.31;5049609;28;19965;-72
2021/06/20 03:25:01;;;;;;;;;;;;;;;20.19;71.89;99545.47;5056832;28;20052;-72
2021/06/20 03:27:27;;;;;;;;;;;;;;;20.25;71.93;99548.06;5048977;28;20036;-72
2021/06/20 03:29:52;;;;;;;;;;;;;;;20.29;72.13;99546.56;5051566;28;19980;-72
2021/06/20 03:32:18;;;;;;;;;;;;;;;20.45;71.68;99550.47;5050838;28;19970;-72
2021/06/20 03:34:44;;;;;;;;;;;;;;;20.55;71.10;99544.53;5043558;28;20182;-72
2021/06/20 03:37:09;;;;;;;;;;;;;;;20.55;71.31;99539.16;5026719;28;19973;-72
2021/06/20 03:39:35;;;;;;;;;;;;;;;20.51;71.57;99541.47;5057320;28;19977;-72
2021/06/20 03:42:00;;;;;;;;;;;;;;;20.55;71.74;99550.72;5048182;28;19969;-72
2021/06/20 03:44:25;;;;;;;;;;;;;;;20.71;71.22;99549.22;5055526;28;20323;-72
2021/06/20 03:46:51;;;;;;;;;;;;;;;20.96;70.12;99546.34;5054154;28;19961;-72
2021/06/20 03:49:16;;;;;;;;;;;;;;;20.98;70.63;99552.31;5048778;28;19980;-72
2021/06/20 03:51:42;;;;;;;;;;;;;;;21.12;69.92;99556.41;5045327;28;19962;-72
2021/06/20 03:54:07;;;;;;;;;;;;;;;21.30;69.30;99558.16;5056638;28;20185;-72
2021/06/20 03:56:32;;;;;;;;;;;;;;;21.40;69.13;99560.25;5054085;28;19968;-72
2021/06/20 03:58:58;;;;;;;;;;;;;;;21.51;68.86;99556.72;5042088;28;19993;-72
2021/06/20 04:01:23;;;;;;;;;;;;;;;21.88;67.56;99551.84;5061249;28;20259;-72
2021/06/20 04:03:48;;;;;;;;;;;;;;;21.67;67.86;99561.38;5053760;28;19981;-72
2021/06/20 04:06:14;;;;;;;;;;;;;;;21.68;68.00;99563.00;5056108;28;19980;-72
2021/06/20 04:08:39;;;;;;;;;;;;;;;21.81;67.89;99556.53;5053688;28;20031;-72
2021/06/20 04:11:04;;;;;;;;;;;;;;;21.80;68.13;99563.78;5050702;28;19972;-72
2021/06/20 04:13:29;;;;;;;;;;;;;;;22.04;67.41;99563.75;5037665;28;19985;-72
2021/06/20 04:15:55;;;;;;;;;;;;;;;22.16;67.34;99559.94;5052079;28;19967;-72
2021/06/20 04:18:20;;;;;;;;;;;;;;;22.44;66.34;99561.78;5034743;28;20003;-72
2021/06/20 04:20:45;;;;;;;;;;;;;;;22.68;64.94;99557.06;5061510;28;19962;-72
2021/06/20 04:23:11;;;;;;;;;;;;;;;22.89;63.31;99556.38;5060950;28;20003;-69
2021/06/20 04:25:36;;;;;;;;;;;;;;;22.94;63.02;99552.94;5055219;28;19990;-70
2021/06/20 04:28:02;;;;;;;;;;;;;;;23.30;61.40;99548.84;5055806;28;20125;-70
2021/06/20 04:30:28;;;;;;;;;;;;;;;23.31;61.61;99558.59;5050285;28;19992;-70
2021/06/20 04:32:53;;;;;;;;;;;;;;;23.55;60.59;99560.03;5057848;28;19992;-70
2021/06/20 04:35:19;;;;;;;;;;;;;;;23.92;60.34;99564.78;5044478;28;19988;-70
2021/06/20 04:37:45;;;;;;;;;;;;;;;24.10;58.38;99560.94;5054820;28;20060;-70
2021/06/20 04:40:12;;;;;;;;;;;;;;;24.31;58.18;99562.81;5047937;28;19965;-70
2021/06/20 04:42:39;;;;;;;;;;;;;;;24.51;57.71;99557.59;5056820;28;20139;-70
2021/06/20 04:45:05;;;;;;;;;;;;;;;24.49;56.60;99562.44;5042388;28;19968;-70
2021/06/20 04:47:31;;;;;;;;;;;;;;;24.71;57.17;99567.78;5042149;28;19966;-70
2021/06/20 04:49:58;;;;;;;;;;;;;;;25.01;56.32;99574.56;5021080;28;20333;-70
2021/06/20 04:52:23;;;;;;;;;;;;;;;25.48;54.77;99566.41;5057027;28;20004;-70
2021/06/20 04:54:49;;;;;;;;;;;;;;;25.92;53.02;99563.38;5050860;28;20209;-70
2021/06/20 04:57:25;;;;;;;;;;;;;;;26.03;52.58;99554.19;5040846;28;20248;-70
2021/06/20 04:59:51;;;;;;;;;;;;;;;26.45;51.82;99551.31;5046573;28;19977;-70
2021/06/20 05:02:16;;;;;;;;;;;;;;;26.04;52.69;99559.34;5053117;28;19972;-69
2021/06/20 05:04:42;;;;;;;;;;;;;;;26.50;51.78;99559.44;5050683;28;20266;-70
2021/06/20 05:07:08;;;;;;;;;;;;;;;27.02;50.58;99553.75;5047820;28;20255;-69
2021/06/20 05:09:33;;;;;;;;;;;;;;;27.20;49.70;99555.09;5046945;28;20064;-70
2021/06/20 05:11:59;;;;;;;;;;;;;;;27.22;49.28;99561.06;5054973;28;19961;-70
2021/06/20 05:14:24;;;;;;;;;;;;;;;27.42;48.96;99556.66;5051095;28;20063;-70
2021/06/20 05:16:49;;;;;;;;;;;;;;;27.65;47.67;99558.78;5047405;28;20162;-70
2021/06/20 05:19:14;;;;;;;;;;;;;;;27.96;46.76;99560.25;5049808;28;19977;-70
2021/06/20 05:21:40;;;;;;;;;;;;;;;27.41;47.32;99569.44;5056098;28;19992;-70
2021/06/20 05:24:05;;;;;;;;;;;;;;;26.84;48.73;99559.72;5046391;28;20017;-69
2021/06/20 05:26:31;;;;;;;;;;;;;;;26.13;50.69;99554.22;5047877;28;19958;-70
2021/06/20 05:28:56;;;;;;;;;;;;;;;25.38;53.08;99559.06;5047637;28;20056;-69
2021/06/20 05:31:21;;;;;;;;;;;;;;;25.19;54.01;99566.00;5049840;28;19976;-70
2021/06/20 05:33:47;;;;;;;;;;;;;;;25.20;54.57;99564.91;5047466;28;20089;-70
2021/06/20 05:36:12;;;;;;;;;;;;;;;25.56;53.99;99555.06;5049365;28;19972;-70
2021/06/20 05:38:37;;;;;;;;;;;;;;;26.06;52.71;99540.09;5037005;28;20020;-70
2021/06/20 05:41:03;;;;;;;;;;;;;;;26.84;50.52;99545.31;5055576;28;19972;-70
2021/06/20 05:43:28;;;;;;;;;;;;;;;27.34;49.32;99556.13;5050055;28;20009;-70
2021/06/20 05:45:53;;;;;;;;;;;;;;;27.77;47.55;99553.81;5053219;28;20068;-70
2021/06/20 05:48:19;;;;;;;;;;;;;;;28.12;47.37;99546.59;5045497;28;20155;-70
2021/06/20 05:50:44;;;;;;;;;;;;;;;28.61;45.63;99546.53;5054579;28;19975;-70
2021/06/20 05:53:09;;;;;;;;;;;;;;;28.83;44.71;99548.78;5050847;28;19985;-70
2021/06/20 05:55:34;;;;;;;;;;;;;;;28.47;45.98;99549.09;5051872;28;19968;-70
2021/06/20 05:58:00;;;;;;;;;;;;;;;28.79;45.01;99545.81;5047965;28;20432;-70
2021/06/20 06:00:25;;;;;;;;;;;;;;;28.73;44.53;99544.22;5050251;28;19968;-70
2021/06/20 06:02:50;;;;;;;;;;;;;;;29.02;44.47;99535.25;5048793;28;20302;-70
2021/06/20 06:05:16;;;;;;;;;;;;;;;29.24;42.88;99541.06;5031996;28;19972;-70
2021/06/20 06:07:42;;;;;;;;;;;;;;;29.07;42.50;99533.28;5047081;28;20274;-70
2021/06/20 06:10:07;;;;;;;;;;;;;;;29.07;42.66;99524.31;5046925;28;19966;-70
2021/06/20 06:12:32;;;;;;;;;;;;;;;29.15;43.94;99529.16;5046653;28;19996;-70
2021/06/20 06:14:58;;;;;;;;;;;;;;;29.46;42.68;99526.91;5051991;28;19981;-70
2021/06/20 06:17:24;;;;;;;;;;;;;;;29.69;41.72;99537.00;5056055;28;20211;-70
2021/06/20 06:19:50;;;;;;;;;;;;;;;29.57;41.63;99535.78;5054021;28;20262;-70
2021/06/20 06:22:16;;;;;;;;;;;;;;;30.10;40.96;99533.72;5052929;28;20229;-70
2021/06/20 06:24:42;;;;;;;;;;;;;;;29.67;40.51;99519.28;5027724;28;19977;-70
2021/06/20 06:27:07;;;;;;;;;;;;;;;30.34;40.32;99523.53;5058975;28;19969;-70
2021/06/20 06:29:33;;;;;;;;;;;;;;;30.52;38.71;99521.06;5054670;28;20076;-70
2021/06/20 06:31:58;;;;;;;;;;;;;;;30.18;39.17;99522.97;5062329;28;20071;-71
2021/06/20 06:34:23;;;;;;;;;;;;;;;30.33;38.68;99521.09;5065713;28;19984;-70
2021/06/20 06:36:49;;;;;;;;;;;;;;;30.18;38.39;99525.69;5065787;28;19961;-70
2021/06/20 06:39:14;;;;;;;;;;;;;;;30.56;37.53;99514.72;5065458;28;19977;-70
2021/06/20 06:41:40;;;;;;;;;;;;;;;31.37;36.45;99523.41;5062602;28;19969;-70
2021/06/20 06:44:05;;;;;;;;;;;;;;;31.73;34.97;99524.31;5053115;28;19991;-70
2021/06/20 06:46:30;;;;;;;;;;;;;;;32.22;33.74;99514.41;5051688;28;20015;-70
2021/06/20 06:48:56;;;;;;;;;;;;;;;31.88;34.82;99514.94;5056440;28;19984;-70
2021/06/20 06:51:21;;;;;;;;;;;;;;;32.18;34.14;99524.38;5050472;28;19962;-70
2021/06/20 06:53:46;;;;;;;;;;;;;;;32.59;32.43;99520.69;5050512;28;20044;-70
2021/06/20 06:56:11;;;;;;;;;;;;;;;32.67;32.62;99515.28;5044842;28;19965;-70
2021/06/20 06:58:37;;;;;;;;;;;;;;;31.92;33.44;99507.72;5044362;28;20247;-70
2021/06/20 07:01:02;;;;;;;;;;;;;;;32.09;34.78;99507.06;5045380;28;20015;-70
2021/06/20 07:03:27;;;;;;;;;;;;;;;32.36;32.90;99511.69;5057128;28;20329;-70
2021/06/20 07:05:53;;;;;;;;;;;;;;;32.81;33.32;99507.00;5049855;28;19981;-70
2021/06/20 07:08:18;;;;;;;;;;;;;;;32.77;32.70;99502.41;5052720;28;19992;-70
2021/06/20 07:10:43;;;;;;;;;;;;;;;31.92;33.39;99496.78;5058601;28;19968;-70
2021/06/20 07:13:09;;;;;;;;;;;;;;;31.11;34.73;99495.69;5045286;28;19990;-70
2021/06/20 07:15:34;;;;;;;;;;;;;;;30.43;36.37;99505.38;5057227;28;19961;-70
2021/06/20 07:17:59;;;;;;;;;;;;;;;30.72;35.85;99504.34;5053746;28;19988;-70
2021/06/20 07:20:25;;;;;;;;;;;;;;;30.70;37.01;99503.84;5048887;28;20014;-70
2021/06/20 07:22:50;;;;;;;;;;;;;;;29.94;36.89;99505.00;5045639;28;19965;-70
2021/06/20 07:25:17;;;;;;;;;;;;;;;30.22;36.26;99506.00;5047972;28;20270;-70
2021/06/20 07:27:42;;;;;;;;;;;;;;;31.27;33.84;99507.19;5048894;28;19966;-70
2021/06/20 07:30:10;;;;;;;;;;;;;;;31.54;34.68;99507.16;5053803;28;19965;-70
2021/06/20 07:32:35;;;;;;;;;;;;;;;32.04;32.90;99502.50;5050158;28;19997;-70
2021/06/20 07:35:01;;;;;;;;;;;;;;;32.40;33.01;99496.22;5052866;28;20190;-70
2021/06/20 07:37:26;;;;;;;;;;;;;;;33.15;31.47;99503.59;5061610;28;19969;-70
2021/06/20 07:39:52;;;;;;;;;;;;;;;33.15;31.53;99495.34;5045030;28;19984;-70
2021/06/20 07:42:17;;;;;;;;;;;;;;;31.61;33.42;99491.16;5055287;28;19972;-69
2021/06/20 07:44:42;;;;;;;;;;;;;;;30.94;33.52;99496.28;5051199;28;20122;-70
2021/06/20 07:47:08;;;;;;;;;;;;;;;30.65;34.59;99496.53;5051474;28;19969;-70
2021/06/20 07:49:33;;;;;;;;;;;;;;;30.73;34.44;99492.31;5041495;28;20016;-70
2021/06/20 07:51:58;;;;;;;;;;;;;;;31.22;34.03;99493.63;5050408;28;20025;-69
2021/06/20 07:54:23;;;;;;;;;;;;;;;30.86;35.46;99493.44;5048579;28;19985;-70
2021/06/20 07:56:49;;;;;;;;;;;;;;;30.70;35.31;99482.78;5054505;28;20003;-70
2021/06/20 07:59:15;;;;;;;;;;;;;;;31.40;34.84;99493.50;5054881;28;20170;-70
2021/06/20 08:01:40;;;;;;;;;;;;;;;31.84;33.42;99489.28;5059069;28;19984;-70
2021/06/20 08:04:05;;;;;;;;;;;;;;;31.53;33.25;99491.88;5055666;28;20270;-70
2021/06/20 08:06:31;;;;;;;;;;;;;;;31.03;33.95;99485.47;5055187;28;19965;-70
2021/06/20 08:08:56;;;;;;;;;;;;;;;30.85;35.40;99487.16;5055218;28;19985;-70
2021/06/20 08:11:22;;;;;;;;;;;;;;;30.54;35.39;99489.59;5050404;28;20155;-70
2021/06/20 08:13:47;;;;;;;;;;;;;;;30.55;35.17;99498.63;5030743;28;20016;-70
2021/06/20 08:16:13;;;;;;;;;;;;;;;30.42;35.55;99495.53;5026426;28;19996;-70
2021/06/20 08:18:38;;;;;;;;;;;;;;;31.32;35.06;99493.41;5031144;28;19981;-70
2021/06/20 08:21:03;;;;;;;;;;;;;;;31.27;33.51;99485.31;5034990;28;19977;-70
2021/06/20 08:23:29;;;;;;;;;;;;;;;31.66;34.08;99479.28;5034114;28;19981;-70
2021/06/20 08:25:54;;;;;;;;;;;;;;;32.42;31.97;99477.56;5030891;28;20305;-70
2021/06/20 08:28:19;;;;;;;;;;;;;;;32.91;31.45;99481.22;5038229;28;19989;-70
2021/06/20 08:30:45;;;;;;;;;;;;;;;32.56;31.91;99477.47;5027093;28;19969;-70
2021/06/20 08:33:10;;;;;;;;;;;;;;;31.87;33.06;99482.41;5035267;28;20072;-70
2021/06/20 08:35:35;;;;;;;;;;;;;;;31.19;34.63;99484.06;5031101;28;19977;-70
2021/06/20 08:38:01;;;;;;;;;;;;;;;30.89;34.70;99485.44;5042078;28;19989;-70
2021/06/20 08:40:26;;;;;;;;;;;;;;;30.73;35.41;99482.19;5042225;28;20269;-70
2021/06/20 08:42:51;;;;;;;;;;;;;;;30.56;35.49;99492.84;5034059;28;19992;-70
2021/06/20 08:45:16;;;;;;;;;;;;;;;30.68;35.53;99493.22;5030991;28;19961;-70
2021/06/20 08:47:42;;;;;;;;;;;;;;;31.23;34.04;99490.59;5029373;28;19966;-69
2021/06/20 08:50:08;;;;;;;;;;;;;;;31.99;32.02;99479.91;5027062;28;19973;-70
2021/06/20 08:52:33;;;;;;;;;;;;;;;32.52;32.50;99476.47;5033741;28;20352;-70
2021/06/20 08:55:02;;;;;;;;;;;;;;;32.69;31.82;99477.38;5033956;28;20294;-69
2021/06/20 08:57:35;;;;;;;;;;;;;;;32.30;32.45;99477.31;5028275;28;19932;-70
2021/06/20 09:00:00;;;;;;;;;;;;;;;32.08;33.16;99481.59;5024768;28;19993;-70
2021/06/20 09:02:26;;;;;;;;;;;;;;;31.87;33.26;99476.91;5042703;28;19973;-70
2021/06/20 09:04:59;;;;;;;;;;;;;;;32.18;32.71;99471.53;5023804;28;19984;-69
2021/06/20 09:07:37;;;;;;;;;;;;;;;32.38;32.02;99473.81;5047381;28;20012;-70
2021/06/20 09:10:09;;;;;;;;;;;;;;;32.55;30.91;99470.38;5034625;28;19972;-70
2021/06/20 09:12:41;;;;;;;;;;;;;;;32.33;33.37;99472.00;5031890;28;20084;-70
2021/06/20 09:15:07;;;;;;;;;;;;;;;32.26;32.81;99473.56;5033696;28;19971;-70
2021/06/20 09:17:32;;;;;;;;;;;;;;;32.05;31.86;99471.28;5029955;28;19974;-71
2021/06/20 09:20:02;;;;;;;;;;;;;;;32.06;31.91;99472.06;5028817;28;19974;-70
2021/06/20 09:22:28;;;;;;;;;;;;;;;31.96;32.08;99464.09;5035783;28;19988;-69
2021/06/20 09:25:00;;;;;;;;;;;;;;;31.99;31.35;99464.28;5027065;28;20334;-70
2021/06/20 09:27:25;;;;;;;;;;;;;;;32.22;30.35;99465.09;5028445;28;20052;-70
2021/06/20 09:29:51;;;;;;;;;;;;;;;32.01;31.17;99462.06;5024211;28;20264;-70
2021/06/20 09:32:16;;;;;;;;;;;;;;;31.53;32.45;99464.50;5025719;28;19966;-70
2021/06/20 09:34:42;;;;;;;;;;;;;;;31.23;32.13;99462.41;5028165;28;19977;-70
2021/06/20 09:37:07;;;;;;;;;;;;;;;31.03;32.97;99460.84;5025633;28;19980;-70
2021/06/20 09:39:32;;;;;;;;;;;;;;;30.71;34.00;99464.47;5025905;28;19985;-70
2021/06/20 09:42:02;;;;;;;;;;;;;;;30.16;34.71;99467.81;5023376;28;19962;-70
2021/06/20 09:44:34;;;;;;;;;;;;;;;30.28;35.72;99469.28;5018851;28;19947;-70
2021/06/20 09:46:59;;;;;;;;;;;;;;;30.05;35.62;99474.53;5027995;28;19962;-70
2021/06/20 09:49:28;;;;;;;;;;;;;;;30.14;34.82;99471.94;5020589;28;19986;-70
2021/06/20 09:51:54;;;;;;;;;;;;;;;30.26;34.83;99466.06;5021593;28;19962;-69
2021/06/20 09:54:26;;;;;;;;;;;;;;;30.47;35.02;99470.88;5023553;28;20322;-70
2021/06/20 09:56:51;;;;;;;;;;;;;;;30.38;33.99;99463.66;5025517;28;19962;-70
2021/06/20 09:59:16;;;;;;;;;;;;;;;30.44;34.48;99465.19;5027819;28;19977;-70
2021/06/20 10:01:43;;;;;;;;;;;;;;;30.51;33.90;99460.16;5027007;28;19984;-70
2021/06/20 10:04:11;;;;;;;;;;;;;;;30.55;34.11;99450.25;5029824;28;20021;-70
2021/06/20 10:06:36;;;;;;;;;;;;;;;30.24;34.04;99460.06;5029308;28;19962;-70
2021/06/20 10:09:02;;;;;;;;;;;;;;;29.78;34.67;99452.53;5033148;28;20062;-70
2021/06/20 10:11:27;;;;;;;;;;;;;;;30.01;34.29;99456.28;5031626;28;20771;-70
2021/06/20 10:13:52;;;;;;;;;;;;;;;30.30;34.31;99439.75;5042189;28;20213;-70
2021/06/20 10:16:29;;;;;;;;;;;;;;;30.58;34.44;99440.63;5035547;28;20305;-70
2021/06/20 10:19:05;;;;;;;;;;;;;;;30.56;34.45;99438.19;5050871;28;19980;-69
2021/06/20 10:21:32;;;;;;;;;;;;;;;30.26;34.57;99444.19;5050000;28;19969;-70
2021/06/20 10:24:02;;;;;;;;;;;;;;;30.27;35.21;99449.38;5033166;28;19988;-70
2021/06/20 10:26:27;;;;;;;;;;;;;;;30.12;34.90;99442.22;5065246;28;19961;-69
2021/06/20 10:28:53;;;;;;;;;;;;;;;29.91;35.75;99445.53;5066195;28;19991;-70
2021/06/20 10:31:19;;;;;;;;;;;;;;;29.76;35.39;99435.66;5051622;28;19957;-69
2021/06/20 10:33:45;;;;;;;;;;;;;;;29.68;36.20;99442.59;5065661;28;20302;-69
2021/06/20 10:36:10;;;;;;;;;;;;;;;29.55;37.55;99444.13;5065901;28;19962;-69
2021/06/20 10:38:45;;;;;;;;;;;;;;;29.30;38.33;99452.63;5065766;28;19992;-69
2021/06/20 10:41:20;;;;;;;;;;;;;;;29.16;37.48;99449.81;5065631;28;19968;-69
2021/06/20 10:43:55;;;;;;;;;;;;;;;29.24;37.70;99446.44;5065850;28;20286;-70
2021/06/20 10:46:20;;;;;;;;;;;;;;;29.17;37.81;99443.25;5065603;28;19967;-69
2021/06/20 10:48:46;;;;;;;;;;;;;;;29.21;38.44;99438.84;5065756;28;19984;-69
2021/06/20 10:51:18;;;;;;;;;;;;;;;29.15;39.58;99440.00;5065622;28;19961;-69
2021/06/20 10:53:44;;;;;;;;;;;;;;;29.32;39.13;99436.78;5065427;28;19981;-69
2021/06/20 10:56:18;;;;;;;;;;;;;;;29.12;37.69;99435.09;5065449;28;19968;-69
2021/06/20 10:58:47;;;;;;;;;;;;;;;29.01;39.07;99430.88;5065158;28;19984;-69
2021/06/20 11:01:13;;;;;;;;;;;;;;;28.97;37.82;99435.28;5047374;28;20032;-69
2021/06/20 11:03:40;;;;;;;;;;;;;;;28.68;41.63;99435.31;5065106;28;20174;-69
2021/06/20 11:06:09;;;;;;;;;;;;;;;27.86;44.48;99443.31;5065153;28;20040;-69
2021/06/20 11:08:38;;;;;;;;;;;;;;;27.83;44.15;99432.19;5065280;28;20025;-69
2021/06/20 11:11:04;;;;;;;;;;;;;;;27.48;44.58;99442.16;5047617;28;20007;-69
2021/06/20 11:13:29;;;;;;;;;;;;;;;27.45;43.99;99431.84;5059504;28;19993;-69
2021/06/20 11:16:05;;;;;;;;;;;;;;;27.60;43.45;99429.06;5049970;28;19962;-69
2021/06/20 11:18:31;;;;;;;;;;;;;;;27.87;44.05;99427.78;5053502;28;20267;-69
2021/06/20 11:20:56;;;;;;;;;;;;;;;27.65;43.76;99430.94;5044094;28;19961;-69
2021/06/20 11:23:21;;;;;;;;;;;;;;;27.70;43.58;99427.38;5044062;28;19989;-70
2021/06/20 11:25:52;;;;;;;;;;;;;;;27.69;43.67;99418.41;5047376;28;19973;-70
2021/06/20 11:28:18;;;;;;;;;;;;;;;27.84;44.11;99412.03;5051833;28;20020;-69
2021/06/20 11:30:43;;;;;;;;;;;;;;;27.93;44.32;99413.06;5047018;28;19990;-70
2021/06/20 11:33:08;;;;;;;;;;;;;;;27.93;45.96;99413.88;5064825;28;19978;-70
2021/06/20 11:35:35;;;;;;;;;;;;;;;27.82;46.90;99406.88;5046799;28;19984;-70
2021/06/20 11:38:00;;;;;;;;;;;;;;;27.88;47.45;99399.50;5064907;28;20003;-69
2021/06/20 11:40:26;;;;;;;;;;;;;;;27.92;47.78;99411.44;5046710;28;19961;-69
2021/06/20 11:42:53;;;;;;;;;;;;;;;27.82;47.69;99396.00;5064357;28;19965;-70
2021/06/20 11:45:20;;;;;;;;;;;;;;;27.69;47.16;99393.09;5064501;28;20026;-69
2021/06/20 11:47:47;;;;;;;;;;;;;;;27.53;48.90;99393.19;5064363;28;19986;-69
2021/06/20 11:50:17;;;;;;;;;;;;;;;27.42;46.47;99394.34;5064709;28;19999;-69
2021/06/20 11:52:47;;;;;;;;;;;;;;;27.46;44.79;99392.69;5046596;28;20039;-69
2021/06/20 11:55:14;;;;;;;;;;;;;;;27.57;42.54;99388.78;5064182;28;19961;-69
2021/06/20 11:57:40;;;;;;;;;;;;;;;27.57;43.27;99391.53;5064252;28;19969;-69
2021/06/20 12:00:06;;;;;;;;;;;;;;;27.61;43.53;99387.16;5064282;28;19961;-69
2021/06/20 12:02:31;;;;;;;;;;;;;;;27.54;42.51;99389.38;5064243;28;19969;-69
2021/06/20 12:04:56;;;;;;;;;;;;;;;27.70;42.29;99381.94;5063978;28;19973;-70
2021/06/20 12:07:25;;;;;;;;;;;;;;;27.94;41.93;99376.59;5064283;28;19975;-69
2021/06/20 12:09:50;;;;;;;;;;;;;;;28.17;42.61;99386.75;5063628;28;20103;-70
2021/06/20 12:12:18;;;;;;;;;;;;;;;27.99;44.22;99376.53;5046143;28;20250;-69
2021/06/20 12:14:45;;;;;;;;;;;;;;;27.66;42.49;99372.72;5056000;28;19981;-69
2021/06/20 12:17:14;;;;;;;;;;;;;;;27.66;43.11;99368.09;5043239;28;19969;-69
2021/06/20 12:19:39;;;;;;;;;;;;;;;27.82;41.29;99362.53;5057312;28;19984;-69
2021/06/20 12:22:12;;;;;;;;;;;;;;;27.89;41.79;99371.19;5044063;28;20189;-69
2021/06/20 12:24:45;;;;;;;;;;;;;;;28.05;41.10;99363.69;5042546;28;20286;-69
2021/06/20 12:27:11;;;;;;;;;;;;;;;28.28;41.26;99357.56;5043943;28;19973;-69
2021/06/20 12:29:37;;;;;;;;;;;;;;;28.25;40.88;99353.50;5043088;28;19985;-70
2021/06/20 12:32:07;;;;;;;;;;;;;;;28.56;40.65;99353.97;5028569;28;20278;-69
2021/06/20 12:34:39;;;;;;;;;;;;;;;28.78;38.75;99352.63;5045493;28;19991;-70
2021/06/20 12:37:04;;;;;;;;;;;;;;;28.69;39.03;99344.28;5043389;28;20174;-70
2021/06/20 12:39:39;;;;;;;;;;;;;;;28.90;38.62;99336.72;5045978;28;20087;-70
2021/06/20 12:42:04;;;;;;;;;;;;;;;28.84;40.29;99338.69;5043267;28;20254;-70